createdAt,value
2023-02-05T00:01:19.015Z,98955.69
2023-02-05T00:03:49.121Z,98947.47
2023-02-05T00:06:17.879Z,98947.03
2023-02-05T00:08:47.918Z,98946.56
2023-02-05T00:11:16.550Z,98931.28
2023-02-05T00:13:45.930Z,98943.84
2023-02-05T00:16:17.118Z,98933.00
2023-02-05T00:18:46.391Z,98937.28
2023-02-05T00:21:15.692Z,98939.66
2023-02-05T00:23:44.212Z,98940.66
2023-02-05T00:26:15.113Z,98942.00
2023-02-05T00:28:45.144Z,98944.75
2023-02-05T00:31:23.490Z,98939.47
2023-02-05T00:33:55.338Z,98946.22
2023-02-05T00:36:24.415Z,98956.50
2023-02-05T00:38:53.221Z,98947.28
2023-02-05T00:41:24.526Z,98946.19
2023-02-05T00:43:53.296Z,98948.81
2023-02-05T00:46:21.781Z,98957.22
2023-02-05T00:48:50.990Z,98954.59
2023-02-05T00:51:19.631Z,98956.94
2023-02-05T00:53:48.224Z,98960.94
2023-02-05T00:56:16.987Z,98960.94
2023-02-05T00:58:50.169Z,98966.50
2023-02-05T01:01:19.402Z,98958.91
2023-02-05T01:03:49.878Z,98960.13
2023-02-05T01:06:18.684Z,98962.16
2023-02-05T01:08:47.775Z,98951.94
2023-02-05T01:11:17.083Z,98952.19
2023-02-05T01:13:47.433Z,98946.78
2023-02-05T01:16:16.639Z,98946.09
2023-02-05T01:18:45.209Z,98944.91
2023-02-05T01:21:14.039Z,98950.41
2023-02-05T01:23:43.072Z,98950.50
2023-02-05T01:26:12.199Z,98943.94
2023-02-05T01:28:40.778Z,98941.28
2023-02-05T01:31:11.573Z,98933.63
2023-02-05T01:33:42.925Z,98936.13
2023-02-05T01:36:12.149Z,98937.63
2023-02-05T01:38:41.171Z,98938.47
2023-02-05T01:41:12.383Z,98942.66
2023-02-05T01:43:41.177Z,98941.13
2023-02-05T01:46:20.026Z,98935.53
2023-02-05T01:48:52.983Z,98941.09
2023-02-05T01:51:23.481Z,98938.06
2023-02-05T01:53:53.640Z,98939.72
2023-02-05T01:56:27.124Z,98947.34
2023-02-05T01:58:59.282Z,98940.16
2023-02-05T02:01:29.855Z,98944.19
2023-02-05T02:03:59.549Z,98939.44
2023-02-05T02:06:29.113Z,98939.75
2023-02-05T02:08:58.106Z,98936.44
2023-02-05T02:11:29.472Z,98929.94
2023-02-05T02:14:01.459Z,98931.00
2023-02-05T02:16:32.609Z,98931.72
2023-02-05T02:19:01.739Z,98926.09
2023-02-05T02:22:05.978Z,98920.72
2023-02-05T02:25:13.269Z,98912.25
2023-02-05T02:27:46.193Z,98915.34
2023-02-05T02:30:19.351Z,98909.84
2023-02-05T02:33:16.458Z,98904.66
2023-02-05T02:35:47.060Z,98914.16
2023-02-05T02:38:21.705Z,98904.31
2023-02-05T02:40:54.274Z,98915.41
2023-02-05T02:43:27.086Z,98914.59
2023-02-05T02:46:01.234Z,98910.59
2023-02-05T02:48:31.097Z,98902.84
2023-02-05T02:51:01.548Z,98895.59
2023-02-05T02:53:35.443Z,98896.41
2023-02-05T02:56:06.916Z,98897.06
2023-02-05T02:58:45.000Z,98897.50
2023-02-05T03:01:17.213Z,98894.22
2023-02-05T03:04:10.530Z,98895.69
2023-02-05T03:06:41.174Z,98891.63
2023-02-05T03:09:13.832Z,98899.63
2023-02-05T03:11:42.547Z,98887.78
2023-02-05T03:14:13.879Z,98884.03
2023-02-05T03:16:45.697Z,98888.50
2023-02-05T03:19:14.637Z,98877.38
2023-02-05T03:21:45.744Z,98885.13
2023-02-05T03:24:17.134Z,98884.16
2023-02-05T03:26:56.463Z,98878.59
2023-02-05T03:29:30.437Z,98877.22
2023-02-05T03:32:15.137Z,98868.03
2023-02-05T03:34:51.716Z,98862.44
2023-02-05T03:37:31.425Z,98857.53
2023-02-05T03:40:33.322Z,98861.28
2023-02-05T03:43:09.888Z,98863.47
2023-02-05T03:45:56.200Z,98865.31
2023-02-05T03:48:38.093Z,98865.31
2023-02-05T03:51:17.916Z,98871.31
2023-02-05T03:53:53.762Z,98869.25
2023-02-05T03:56:27.292Z,98874.19
2023-02-05T03:58:58.540Z,98879.47
2023-02-05T04:01:30.376Z,98887.31
2023-02-05T04:03:59.390Z,98888.00
2023-02-05T04:06:30.016Z,98883.84
2023-02-05T04:08:59.423Z,98874.00
2023-02-05T04:11:29.217Z,98868.38
2023-02-05T04:13:58.522Z,98874.81
2023-02-05T04:16:29.714Z,98867.84
2023-02-05T04:19:01.156Z,98872.25
2023-02-05T04:21:30.376Z,98869.50
2023-02-05T04:24:00.560Z,98871.84
2023-02-05T04:26:30.126Z,98861.72
2023-02-05T04:29:04.177Z,98854.97
2023-02-05T04:31:42.934Z,98854.50
2023-02-05T04:34:18.862Z,98857.75
2023-02-05T04:37:17.106Z,98846.75
2023-02-05T04:39:49.520Z,98841.59
2023-02-05T04:42:19.032Z,98834.69
2023-02-05T04:44:48.116Z,98840.31
2023-02-05T04:47:17.380Z,98840.31
2023-02-05T04:50:06.456Z,98838.59
2023-02-05T04:52:35.553Z,98836.28
2023-02-05T04:55:05.688Z,98839.38
2023-02-05T04:57:34.646Z,98831.22
2023-02-05T05:00:07.509Z,98837.59
2023-02-05T05:02:36.819Z,98837.38
2023-02-05T05:05:07.956Z,98842.00
2023-02-05T05:07:38.662Z,98829.78
2023-02-05T05:10:12.787Z,98830.69
2023-02-05T05:12:41.597Z,98832.31
2023-02-05T05:15:15.576Z,98833.16
2023-02-05T05:17:44.708Z,98830.34
2023-02-05T05:20:14.923Z,98832.16
2023-02-05T05:22:43.981Z,98827.72
2023-02-05T05:25:15.729Z,98827.34
2023-02-05T05:27:44.900Z,98818.25
2023-02-05T05:30:14.863Z,98818.97
2023-02-05T05:32:43.825Z,98818.81
2023-02-05T05:35:14.390Z,98824.00
2023-02-05T05:37:43.231Z,98822.78
2023-02-05T05:40:31.590Z,98830.34
2023-02-05T05:43:18.135Z,98825.41
2023-02-05T05:45:47.041Z,98829.47
2023-02-05T05:48:16.224Z,98832.94
2023-02-05T05:50:47.165Z,98840.19
2023-02-05T05:53:16.467Z,98840.47
2023-02-05T05:55:45.253Z,98841.47
2023-02-05T05:58:14.962Z,98838.72
2023-02-05T06:00:44.641Z,98834.91
2023-02-05T06:03:13.769Z,98837.38
2023-02-05T06:05:42.744Z,98842.13
2023-02-05T06:08:14.279Z,98836.69
2023-02-05T06:10:43.617Z,98834.22
2023-02-05T06:13:12.722Z,98838.22
2023-02-05T06:15:41.645Z,98828.44
2023-02-05T06:18:10.945Z,98831.56
2023-02-05T06:20:41.548Z,98837.19
2023-02-05T06:23:10.443Z,98837.84
2023-02-05T06:25:41.165Z,98840.66
2023-02-05T06:28:11.635Z,98834.75
2023-02-05T06:30:41.130Z,98837.38
2023-02-05T06:33:11.693Z,98842.13
2023-02-05T06:35:49.828Z,98846.75
2023-02-05T06:38:19.228Z,98851.72
2023-02-05T06:40:53.439Z,98853.66
2023-02-05T06:43:22.662Z,98848.06
2023-02-05T06:45:51.911Z,98847.72
2023-02-05T06:48:21.043Z,98847.13
2023-02-05T06:50:50.041Z,98848.75
2023-02-05T06:53:19.038Z,98842.72
2023-02-05T06:55:47.940Z,98848.53
2023-02-05T06:58:18.778Z,98851.31
2023-02-05T07:00:50.024Z,98852.44
2023-02-05T07:03:19.222Z,98857.06
2023-02-05T07:05:48.600Z,98851.69
2023-02-05T07:08:18.136Z,98849.69
2023-02-05T07:10:47.024Z,98862.47
2023-02-05T07:13:17.949Z,98856.22
2023-02-05T07:15:47.606Z,98860.09
2023-02-05T07:18:16.874Z,98852.03
2023-02-05T07:20:46.077Z,98855.78
2023-02-05T07:23:15.451Z,98848.16
2023-02-05T07:25:46.728Z,98844.91
2023-02-05T07:28:38.061Z,98848.81
2023-02-05T07:31:08.184Z,98832.44
2023-02-05T07:33:38.080Z,98838.44
2023-02-05T07:36:09.134Z,98838.25
2023-02-05T07:38:58.388Z,98836.91
2023-02-05T07:41:29.737Z,98829.69
2023-02-05T07:44:00.194Z,98838.44
2023-02-05T07:46:29.864Z,98838.22
2023-02-05T07:48:58.594Z,98839.22
2023-02-05T07:51:28.380Z,98845.09
2023-02-05T07:53:57.572Z,98851.28
2023-02-05T07:56:26.979Z,98829.28
2023-02-05T07:58:56.179Z,98835.13
2023-02-05T08:01:26.606Z,98844.41
2023-02-05T08:03:55.832Z,98844.97
2023-02-05T08:06:25.308Z,98849.41
2023-02-05T08:08:56.250Z,98846.16
2023-02-05T08:11:28.112Z,98855.06
2023-02-05T08:13:56.888Z,98851.63
2023-02-05T08:16:27.795Z,98853.53
2023-02-05T08:18:56.935Z,98854.41
2023-02-05T08:21:26.132Z,98850.03
2023-02-05T08:23:57.362Z,98853.19
2023-02-05T08:26:26.376Z,98841.81
2023-02-05T08:28:56.592Z,98840.88
2023-02-05T08:31:27.154Z,98841.22
2023-02-05T08:33:58.168Z,98832.66
2023-02-05T08:36:27.472Z,98838.19
2023-02-05T08:38:56.355Z,98826.06
2023-02-05T08:41:25.971Z,98817.28
2023-02-05T08:43:58.243Z,98815.00
2023-02-05T08:46:49.671Z,98804.56
2023-02-05T08:49:18.780Z,98809.25
2023-02-05T08:51:48.413Z,98803.16
2023-02-05T08:54:17.865Z,98799.25
2023-02-05T08:57:01.517Z,98790.19
2023-02-05T08:59:34.162Z,98787.50
2023-02-05T09:02:06.158Z,98792.59
2023-02-05T09:04:35.382Z,98788.22
2023-02-05T09:07:03.996Z,98783.88
2023-02-05T09:09:35.056Z,98781.41
2023-02-05T09:12:04.795Z,98784.22
2023-02-05T09:14:36.510Z,98771.72
2023-02-05T09:17:07.480Z,98776.53
2023-02-05T09:19:36.386Z,98776.38
2023-02-05T09:22:05.898Z,98774.50
2023-02-05T09:24:34.723Z,98776.22
2023-02-05T09:27:06.362Z,98778.84
2023-02-05T09:29:35.848Z,98778.69
2023-02-05T09:32:06.416Z,98770.25
2023-02-05T09:34:36.044Z,98769.03
2023-02-05T09:37:04.540Z,98777.25
2023-02-05T09:42:29.903Z,98784.50
2023-02-05T09:45:07.981Z,98782.38
2023-02-05T09:47:43.150Z,98766.50
2023-02-05T09:50:16.260Z,98775.03
2023-02-05T09:52:49.766Z,98771.63
2023-02-05T09:55:22.561Z,98754.63
2023-02-05T09:57:53.443Z,98748.41
2023-02-05T10:00:27.738Z,98741.06
2023-02-05T10:03:04.408Z,98728.66
2023-02-05T10:05:40.554Z,98724.00
2023-02-05T10:08:15.249Z,98723.59
2023-02-05T10:10:46.623Z,98723.22
2023-02-05T10:13:29.271Z,98713.09
2023-02-05T10:16:10.104Z,98700.59
2023-02-05T10:18:53.214Z,98691.38
2023-02-05T10:21:37.647Z,98692.00
2023-02-05T10:24:21.804Z,98691.69
2023-02-05T10:26:54.381Z,98691.38
2023-02-05T10:29:29.894Z,98687.13
2023-02-05T10:32:11.419Z,98676.25
2023-02-05T10:34:50.556Z,98677.16
2023-02-05T10:37:21.148Z,98679.84
2023-02-05T10:39:50.758Z,98676.81
2023-02-05T10:42:27.702Z,98682.59
2023-02-05T10:45:02.702Z,98668.91
2023-02-05T10:47:42.349Z,98675.25
2023-02-05T10:50:19.962Z,98670.78
2023-02-05T10:52:48.867Z,98665.25
2023-02-05T10:55:17.700Z,98664.44
2023-02-05T10:57:46.345Z,98667.94
2023-02-05T11:00:17.768Z,98665.88
2023-02-05T11:02:50.032Z,98654.44
2023-02-05T11:05:25.078Z,98645.50
2023-02-05T11:07:55.019Z,98646.28
2023-02-05T11:10:24.997Z,98642.59
2023-02-05T11:12:55.157Z,98632.41
2023-02-05T11:15:26.788Z,98634.44
2023-02-05T11:18:00.748Z,98629.50
2023-02-05T11:20:32.731Z,98626.28
2023-02-05T11:23:10.378Z,98628.50
2023-02-05T11:25:50.564Z,98624.19
2023-02-05T11:28:28.577Z,98626.63
2023-02-05T11:30:57.483Z,98630.31
2023-02-05T11:33:28.618Z,98619.25
2023-02-05T11:36:00.968Z,98627.38
2023-02-05T11:38:35.403Z,98630.63
2023-02-05T11:41:06.028Z,98630.63
2023-02-05T11:43:36.253Z,98634.69
2023-02-05T11:46:07.679Z,98637.31
2023-02-05T11:48:41.433Z,98633.22
2023-02-05T11:51:13.163Z,98633.78
2023-02-05T11:53:50.009Z,98639.56
2023-02-05T11:56:24.353Z,98627.94
2023-02-05T11:59:00.930Z,98632.75
2023-02-05T12:01:33.805Z,98623.63
2023-02-05T12:04:04.187Z,98622.84
2023-02-05T12:06:39.032Z,98631.84
2023-02-05T12:09:07.751Z,98628.59
2023-02-05T12:12:04.194Z,98624.63
2023-02-05T12:14:39.870Z,98628.69
2023-02-05T12:17:21.538Z,98630.06
2023-02-05T12:19:54.571Z,98623.09
2023-02-05T12:22:32.340Z,98625.91
2023-02-05T12:25:10.565Z,98614.91
2023-02-05T12:27:53.115Z,98608.69
2023-02-05T12:30:33.516Z,98612.53
2023-02-05T12:33:18.790Z,98600.91
2023-02-05T12:35:56.478Z,98600.13
2023-02-05T12:38:34.906Z,98594.63
2023-02-05T12:41:13.401Z,98597.06
2023-02-05T12:43:43.304Z,98598.00
2023-02-05T12:46:28.828Z,98594.03
2023-02-05T12:49:10.588Z,98599.00
2023-02-05T12:51:57.010Z,98591.63
2023-02-05T12:54:50.043Z,98584.25
2023-02-05T12:57:21.040Z,98588.66
2023-02-05T12:59:52.299Z,98583.56
2023-02-05T13:02:28.729Z,98581.41
2023-02-05T13:05:14.622Z,98590.72
2023-02-05T13:07:45.372Z,98585.97
2023-02-05T13:10:19.774Z,98582.19
2023-02-05T13:12:50.810Z,98583.72
2023-02-05T13:15:22.123Z,98580.47
2023-02-05T13:18:02.205Z,98583.16
2023-02-05T13:20:52.465Z,98585.69
2023-02-05T13:23:38.160Z,98580.03
2023-02-05T13:26:26.198Z,98576.16
2023-02-05T13:28:58.944Z,98579.47
2023-02-05T13:31:29.703Z,98579.63
2023-02-05T13:34:03.793Z,98576.81
2023-02-05T13:36:55.617Z,98570.38
2023-02-05T13:39:43.101Z,98569.84
2023-02-05T13:42:42.208Z,98582.78
2023-02-05T13:45:46.021Z,98572.06
2023-02-05T13:48:28.445Z,98567.22
2023-02-05T13:51:18.147Z,98565.69
2023-02-05T13:53:54.666Z,98565.22
2023-02-05T13:56:48.968Z,98568.28
2023-02-05T13:59:23.688Z,98561.09
2023-02-05T14:01:54.193Z,98560.84
2023-02-05T14:04:26.197Z,98555.53
2023-02-05T14:07:00.541Z,98566.16
2023-02-05T14:09:35.192Z,98559.63
2023-02-05T14:12:05.959Z,98558.91
2023-02-05T14:14:36.402Z,98558.75
2023-02-05T14:17:43.230Z,98555.81
2023-02-05T14:20:40.186Z,98557.50
2023-02-05T14:23:16.842Z,98557.44
2023-02-05T14:26:11.418Z,98556.25
2023-02-05T14:28:53.198Z,98564.06
2023-02-05T14:31:47.429Z,98564.34
2023-02-05T14:34:49.016Z,98558.72
2023-02-05T14:37:40.599Z,98562.16
2023-02-05T14:40:27.845Z,98568.69
2023-02-05T14:43:09.590Z,98567.84
2023-02-05T14:45:44.239Z,98561.72
2023-02-05T14:48:20.485Z,98564.16
2023-02-05T14:50:48.760Z,98561.25
2023-02-05T14:53:26.682Z,98565.09
2023-02-05T14:55:56.747Z,98561.66
2023-02-05T14:58:27.400Z,98559.41
2023-02-05T15:01:29.096Z,98562.03
2023-02-05T15:03:59.262Z,98559.13
2023-02-05T15:06:30.484Z,98564.84
2023-02-05T15:09:04.432Z,98561.00
2023-02-05T15:11:46.779Z,98554.41
2023-02-05T15:14:41.751Z,98559.28
2023-02-05T15:17:40.475Z,98554.97
2023-02-05T15:20:20.316Z,98558.53
2023-02-05T15:22:53.546Z,98558.50
2023-02-05T15:25:33.856Z,98551.34
2023-02-05T15:28:06.300Z,98561.34
2023-02-05T15:30:45.046Z,98566.25
2023-02-05T15:33:17.909Z,98563.59
2023-02-05T15:35:47.668Z,98560.59
2023-02-05T15:38:26.241Z,98564.22
2023-02-05T15:40:56.594Z,98567.88
2023-02-05T15:43:26.162Z,98572.97
2023-02-05T15:46:00.905Z,98570.91
2023-02-05T15:48:39.154Z,98570.44
2023-02-05T15:51:14.981Z,98573.78
2023-02-05T15:53:46.005Z,98566.56
2023-02-05T15:56:22.821Z,98574.72
2023-02-05T15:58:53.565Z,98570.41
2023-02-05T16:01:26.303Z,98566.34
2023-02-05T16:03:54.605Z,98570.50
2023-02-05T16:06:25.198Z,98583.34
2023-02-05T16:08:54.280Z,98580.09
2023-02-05T16:11:31.961Z,98582.97
2023-02-05T16:14:04.840Z,98587.09
2023-02-05T16:16:33.913Z,98588.47
2023-02-05T16:19:04.786Z,98586.84
2023-02-05T16:21:34.441Z,98588.16
2023-02-05T16:24:04.689Z,98595.09
2023-02-05T16:26:39.818Z,98595.97
2023-02-05T16:29:20.174Z,98589.25
2023-02-05T16:31:59.019Z,98591.47
2023-02-05T16:34:27.522Z,98588.38
2023-02-05T16:36:58.784Z,98592.66
2023-02-05T16:39:28.927Z,98595.47
2023-02-05T16:42:07.087Z,98594.25
2023-02-05T16:44:37.451Z,98598.41
2023-02-05T16:47:12.594Z,98597.56
2023-02-05T16:49:41.604Z,98594.50
2023-02-05T16:52:28.907Z,98603.09
2023-02-05T16:54:57.393Z,98603.47
2023-02-05T16:57:31.401Z,98607.13
2023-02-05T17:00:01.151Z,98603.63
2023-02-05T17:02:35.683Z,98602.63
2023-02-05T17:05:05.966Z,98600.81
2023-02-05T17:07:34.933Z,98600.66
2023-02-05T17:10:15.007Z,98599.91
2023-02-05T17:12:54.389Z,98600.09
2023-02-05T17:15:34.263Z,98607.22
2023-02-05T17:18:11.198Z,98605.81
2023-02-05T17:20:39.481Z,98604.59
2023-02-05T17:23:09.942Z,98602.94
2023-02-05T17:25:41.338Z,98604.78
2023-02-05T17:28:16.537Z,98606.81
2023-02-05T17:30:45.892Z,98595.56
2023-02-05T17:33:18.297Z,98603.31
2023-02-05T17:35:46.549Z,98595.34
2023-02-05T17:38:14.969Z,98594.34
2023-02-05T17:40:43.659Z,98597.63
2023-02-05T17:43:13.801Z,98613.38
2023-02-05T17:45:44.311Z,98609.50
2023-02-05T17:48:13.114Z,98614.19
2023-02-05T17:50:41.452Z,98609.91
2023-02-05T17:53:14.133Z,98611.16
2023-02-05T17:55:43.002Z,98603.41
2023-02-05T17:58:11.439Z,98606.88
2023-02-05T18:00:41.303Z,98597.09
2023-02-05T18:03:10.197Z,98612.00
2023-02-05T18:05:39.456Z,98610.34
2023-02-05T18:08:07.853Z,98604.66
2023-02-05T18:10:37.071Z,98609.16
2023-02-05T18:13:05.629Z,98611.19
2023-02-05T18:15:34.275Z,98615.66
2023-02-05T18:18:04.226Z,98614.03
2023-02-05T18:20:32.598Z,98617.13
2023-02-05T18:23:03.251Z,98611.59
2023-02-05T18:25:32.141Z,98613.63
2023-02-05T18:28:00.396Z,98613.25
2023-02-05T18:30:29.915Z,98606.06
2023-02-05T18:32:58.665Z,98611.59
2023-02-05T18:35:28.479Z,98617.75
2023-02-05T18:37:56.896Z,98614.06
2023-02-05T18:40:26.678Z,98608.72
2023-02-05T18:42:56.382Z,98603.03
2023-02-05T18:45:24.646Z,98619.38
2023-02-05T18:47:52.945Z,98628.94
2023-02-05T18:50:22.005Z,98623.03
2023-02-05T18:52:51.730Z,98626.06
2023-02-05T18:55:19.917Z,98632.81
2023-02-05T18:57:48.211Z,98638.94
2023-02-05T19:00:17.315Z,98644.66
2023-02-05T19:02:46.265Z,98647.50
2023-02-05T19:05:14.988Z,98658.50
2023-02-05T19:07:45.002Z,98649.97
2023-02-05T19:10:15.062Z,98651.34
2023-02-05T19:12:43.871Z,98656.06
2023-02-05T19:15:12.848Z,98660.53
2023-02-05T19:17:41.453Z,98668.28
2023-02-05T19:20:10.512Z,98663.75
2023-02-05T19:22:38.824Z,98667.03
2023-02-05T19:25:08.511Z,98663.75
2023-02-05T19:27:38.321Z,98659.69
2023-02-05T19:30:08.808Z,98673.56
2023-02-05T19:32:37.718Z,98667.03
2023-02-05T19:35:06.529Z,98662.34
2023-02-05T19:37:35.085Z,98666.22
2023-02-05T19:40:03.879Z,98664.81
2023-02-05T19:42:32.748Z,98669.06
2023-02-05T19:45:02.974Z,98677.03
2023-02-05T19:47:32.207Z,98682.31
2023-02-05T19:50:01.314Z,98683.34
2023-02-05T19:52:30.398Z,98683.72
2023-02-05T19:54:59.294Z,98689.25
2023-02-05T19:57:28.988Z,98678.84
2023-02-05T19:59:57.836Z,98686.56
2023-02-05T20:02:28.292Z,98686.56
2023-02-05T20:04:57.289Z,98683.91
2023-02-05T20:07:26.376Z,98691.25
2023-02-05T20:09:55.040Z,98689.59
2023-02-05T20:12:23.443Z,98699.97
2023-02-05T20:14:51.825Z,98705.50
2023-02-05T20:17:20.333Z,98702.78
2023-02-05T20:19:52.156Z,98703.41
2023-02-05T20:22:24.435Z,98702.63
2023-02-05T20:24:53.518Z,98690.59
2023-02-05T20:27:23.321Z,98690.16
2023-02-05T20:30:09.483Z,98698.69
2023-02-05T20:32:38.084Z,98703.56
2023-02-05T20:35:09.456Z,98712.94
2023-02-05T20:37:38.403Z,98719.28
2023-02-05T20:40:10.204Z,98723.53
2023-02-05T20:42:39.271Z,98722.13
2023-02-05T20:45:09.296Z,98723.53
2023-02-05T20:47:38.213Z,98727.78
2023-02-05T20:50:09.444Z,98733.28
2023-02-05T20:52:38.353Z,98748.34
2023-02-05T20:55:08.969Z,98750.34
2023-02-05T20:57:38.084Z,98743.00
2023-02-05T21:00:08.409Z,98752.78
2023-02-05T21:02:37.442Z,98760.94
2023-02-05T21:05:07.009Z,98761.38
2023-02-05T21:07:37.469Z,98773.19
2023-02-05T21:10:07.030Z,98784.97
2023-02-05T21:12:35.950Z,98792.22
2023-02-05T21:15:05.274Z,98798.28
2023-02-05T21:17:34.645Z,98801.53
2023-02-05T21:20:04.804Z,98798.59
2023-02-05T21:22:33.841Z,98805.19
2023-02-05T21:25:04.200Z,98798.44
2023-02-05T21:27:33.002Z,98804.69
2023-02-05T21:30:01.539Z,98805.91
2023-02-05T21:32:30.677Z,98804.34
2023-02-05T21:34:59.400Z,98797.00
2023-02-05T21:37:27.899Z,98795.75
2023-02-05T21:40:08.471Z,98798.81
2023-02-05T21:42:42.378Z,98803.09
2023-02-05T21:45:11.501Z,98799.28
2023-02-05T21:47:40.591Z,98798.44
2023-02-05T21:50:10.452Z,98796.56
2023-02-05T21:52:39.708Z,98802.28
2023-02-05T21:55:09.407Z,98804.13
2023-02-05T21:57:38.323Z,98808.41
2023-02-05T22:00:09.758Z,98809.56
2023-02-05T22:02:41.688Z,98815.69
2023-02-05T22:08:04.356Z,98812.34
2023-02-05T22:10:33.844Z,98807.03
2023-02-05T22:13:02.977Z,98814.16
2023-02-05T22:15:33.108Z,98811.16
2023-02-05T22:18:01.882Z,98810.84
2023-02-05T22:20:30.655Z,98821.22
2023-02-05T22:22:59.502Z,98822.38
2023-02-05T22:25:28.485Z,98820.06
2023-02-05T22:27:57.194Z,98819.91
2023-02-05T22:30:26.260Z,98824.94
2023-02-05T22:32:56.654Z,98819.25
2023-02-05T22:35:25.790Z,98829.97
2023-02-05T22:37:55.101Z,98834.81
2023-02-05T22:40:24.294Z,98836.66
2023-02-05T22:43:14.072Z,98842.69
2023-02-05T22:45:45.439Z,98841.59
2023-02-05T22:48:16.160Z,98839.59
2023-02-05T22:50:46.910Z,98850.34
2023-02-05T22:53:15.905Z,98847.44
2023-02-05T22:55:45.189Z,98852.13
2023-02-05T22:58:14.341Z,98845.94
2023-02-05T23:00:43.380Z,98850.41
2023-02-05T23:03:12.288Z,98856.88
2023-02-05T23:05:42.700Z,98864.19
2023-02-05T23:08:11.980Z,98845.47
2023-02-05T23:10:41.261Z,98847.50
2023-02-05T23:13:10.247Z,98859.25
2023-02-05T23:15:39.264Z,98853.97
2023-02-05T23:18:07.997Z,98856.59
2023-02-05T23:20:37.039Z,98860.25
2023-02-05T23:23:07.394Z,98872.28
2023-02-05T23:25:37.870Z,98865.28
2023-02-05T23:28:07.079Z,98872.03
2023-02-05T23:30:36.268Z,98885.25
2023-02-05T23:33:05.315Z,98886.06
2023-02-05T23:35:59.691Z,98888.41
2023-02-05T23:38:32.338Z,98889.97
2023-02-05T23:41:01.306Z,98892.00
2023-02-05T23:43:30.384Z,98906.56
2023-02-05T23:46:02.983Z,98903.13
2023-02-05T23:48:31.845Z,98896.81
2023-02-05T23:51:01.152Z,98902.47
2023-02-05T23:53:34.754Z,98909.75
2023-02-05T23:56:24.008Z,98902.22
2023-02-05T23:58:53.507Z,98897.19
